WXForecasting.com
Aberdeen, SD - Weather Station Data
Daily Summary for April 16, 2018 Units:  Both    English   Metric
Next Day »
Daily Weekly Monthly Yearly Custom
  High: Low: Average:
Temperature: 46.7 °F /  8.2 °C 21.5 °F /  -5.8 °C 34.4 °F /  1.3 °C
Dew Point: 27.0 °F /  -2.8 °C 17.0 °F /  -8.3 °C 22.2 °F /  -5.4 °C
Humidity: 83% 41% 64%
Wind Speed: 9.0mph /  14.5km/h - 2.8mph /  4.5km/h
Wind Gust: 12.0mph /  19.3km/h - -
Wind- - ESE
Pressure: 30.24 in /  1023.9 hPa 30.03 in /  1016.8 hPa -
Precipitation: 0.00 in /  0 mm    
Historical Graphs
 
 
Tabular Data for April 16, 2018
Time Temperature Dew Point Pressure Wind Wind Speed Wind Gust Humidity Rainfall Rate (Hourly) solar Conditions
00:01 28.1 °F /  -2.2 °C 23.0 °F /  -5 °C 30.24in /  1023.9hPa North 4.0mph /  6.4km/h 6.0mph /  9.7km/h 80% 0.00in /  0mm 0 W/m2
00:16 27.8 °F /  -2.3 °C 23.0 °F /  -5 °C 30.23in /  1023.6hPa North 4.0mph /  6.4km/h 5.0mph /  8km/h 81% 0.00in /  0mm 0 W/m2
00:31 27.6 °F /  -2.4 °C 23.0 °F /  -5 °C 30.23in /  1023.6hPa North 1.0mph /  1.6km/h 5.0mph /  8km/h 81% 0.00in /  0mm 0 W/m2
00:46 27.4 °F /  -2.6 °C 22.0 °F /  -5.6 °C 30.23in /  1023.6hPa North 3.0mph /  4.8km/h 5.0mph /  8km/h 80% 0.00in /  0mm 0 W/m2
01:01 27.4 °F /  -2.6 °C 22.0 °F /  -5.6 °C 30.23in /  1023.6hPa Calm   5.0mph /  8km/h 80% 0.00in /  0mm 0 W/m2
01:16 27.1 °F /  -2.7 °C 21.0 °F /  -6.1 °C 30.23in /  1023.6hPa North 2.0mph /  3.2km/h 3.0mph /  4.8km/h 79% 0.00in /  0mm 0 W/m2
01:31 26.6 °F /  -3 °C 21.0 °F /  -6.1 °C 30.23in /  1023.6hPa North 2.0mph /  3.2km/h 3.0mph /  4.8km/h 79% 0.00in /  0mm 0 W/m2
01:46 26.2 °F /  -3.2 °C 21.0 °F /  -6.1 °C 30.23in /  1023.6hPa North 1.0mph /  1.6km/h 3.0mph /  4.8km/h 80% 0.00in /  0mm 0 W/m2
02:01 26.0 °F /  -3.3 °C 21.0 °F /  -6.1 °C 30.23in /  1023.6hPa North 3.0mph /  4.8km/h 4.0mph /  6.4km/h 80% 0.00in /  0mm 0 W/m2
02:16 25.8 °F /  -3.4 °C 20.0 °F /  -6.7 °C 30.23in /  1023.6hPa Calm   3.0mph /  4.8km/h 80% 0.00in /  0mm 0 W/m2
02:31 25.7 °F /  -3.5 °C 21.0 °F /  -6.1 °C 30.23in /  1023.6hPa North 2.0mph /  3.2km/h 4.0mph /  6.4km/h 81% 0.00in /  0mm 0 W/m2
02:46 25.4 °F /  -3.7 °C 20.0 °F /  -6.7 °C 30.23in /  1023.6hPa North 2.0mph /  3.2km/h 5.0mph /  8km/h 81% 0.00in /  0mm 0 W/m2
03:01 25.2 °F /  -3.8 °C 20.0 °F /  -6.7 °C 30.23in /  1023.6hPa Calm   3.0mph /  4.8km/h 81% 0.00in /  0mm 0 W/m2
03:16 25.0 °F /  -3.9 °C 20.0 °F /  -6.7 °C 30.23in /  1023.6hPa North 2.0mph /  3.2km/h 4.0mph /  6.4km/h 81% 0.00in /  0mm 0 W/m2
03:32 24.9 °F /  -3.9 °C 20.0 °F /  -6.7 °C 30.22in /  1023.2hPa North 2.0mph /  3.2km/h 5.0mph /  8km/h 82% 0.00in /  0mm 0 W/m2
03:46 24.6 °F /  -4.1 °C 20.0 °F /  -6.7 °C 30.21in /  1022.9hPa North 2.0mph /  3.2km/h 3.0mph /  4.8km/h 81% 0.00in /  0mm 0 W/m2
04:01 24.2 °F /  -4.3 °C 19.0 °F /  -7.2 °C 30.20in /  1022.6hPa Calm   3.0mph /  4.8km/h 82% 0.00in /  0mm 0 W/m2
04:17 24.0 °F /  -4.4 °C 19.0 °F /  -7.2 °C 30.20in /  1022.6hPa North 2.0mph /  3.2km/h 4.0mph /  6.4km/h 82% 0.00in /  0mm 0 W/m2
04:32 23.8 °F /  -4.6 °C 19.0 °F /  -7.2 °C 30.20in /  1022.6hPa North 1.0mph /  1.6km/h 4.0mph /  6.4km/h 82% 0.00in /  0mm 0 W/m2
04:47 23.1 °F /  -4.9 °C 19.0 °F /  -7.2 °C 30.21in /  1022.9hPa Calm   1.0mph /  1.6km/h 83% 0.00in /  0mm 0 W/m2
05:02 23.4 °F /  -4.8 °C 19.0 °F /  -7.2 °C 30.21in /  1022.9hPa North 1.0mph /  1.6km/h 3.0mph /  4.8km/h 83% 0.00in /  0mm 0 W/m2
05:17 23.4 °F /  -4.8 °C 19.0 °F /  -7.2 °C 30.21in /  1022.9hPa North 2.0mph /  3.2km/h 3.0mph /  4.8km/h 82% 0.00in /  0mm 0 W/m2
05:32 23.2 °F /  -4.9 °C 19.0 °F /  -7.2 °C 30.21in /  1022.9hPa Calm   2.0mph /  3.2km/h 82% 0.00in /  0mm 0 W/m2
05:47 23.1 °F /  -4.9 °C 18.0 °F /  -7.8 °C 30.21in /  1022.9hPa North 2.0mph /  3.2km/h 3.0mph /  4.8km/h 82% 0.00in /  0mm 0 W/m2
06:02 22.8 °F /  -5.1 °C 18.0 °F /  -7.8 °C 30.21in /  1022.9hPa North 1.0mph /  1.6km/h 3.0mph /  4.8km/h 82% 0.00in /  0mm 0 W/m2
06:17 22.5 °F /  -5.3 °C 18.0 °F /  -7.8 °C 30.21in /  1022.9hPa North 1.0mph /  1.6km/h 3.0mph /  4.8km/h 82% 0.00in /  0mm 0 W/m2
06:32 22.2 °F /  -5.4 °C 18.0 °F /  -7.8 °C 30.21in /  1022.9hPa Calm   3.0mph /  4.8km/h 82% 0.00in /  0mm 0 W/m2
06:47 21.7 °F /  -5.7 °C 17.0 °F /  -8.3 °C 30.21in /  1022.9hPa Calm   2.0mph /  3.2km/h 82% 0.00in /  0mm 5 W/m2
07:02 21.5 °F /  -5.8 °C 17.0 °F /  -8.3 °C 30.21in /  1022.9hPa Calm   2.0mph /  3.2km/h 83% 0.00in /  0mm 14 W/m2
07:17 21.5 °F /  -5.8 °C 17.0 °F /  -8.3 °C 30.21in /  1022.9hPa North 1.0mph /  1.6km/h 3.0mph /  4.8km/h 83% 0.00in /  0mm 21 W/m2
07:32 22.2 °F /  -5.4 °C 18.0 °F /  -7.8 °C 30.21in /  1022.9hPa North 1.0mph /  1.6km/h 4.0mph /  6.4km/h 83% 0.00in /  0mm 30 W/m2
07:47 23.3 °F /  -4.8 °C 19.0 °F /  -7.2 °C 30.21in /  1022.9hPa North 3.0mph /  4.8km/h 6.0mph /  9.7km/h 83% 0.00in /  0mm 35 W/m2
08:02 24.8 °F /  -4 °C 20.0 °F /  -6.7 °C 30.21in /  1022.9hPa North 3.0mph /  4.8km/h 8.0mph /  12.9km/h 81% 0.00in /  0mm 169 W/m2
08:17 26.4 °F /  -3.1 °C 21.0 °F /  -6.1 °C 30.21in /  1022.9hPa North 5.0mph /  8km/h 6.0mph /  9.7km/h 79% 0.00in /  0mm 230 W/m2
08:32 27.9 °F /  -2.3 °C 22.0 °F /  -5.6 °C 30.22in /  1023.2hPa North 5.0mph /  8km/h 5.0mph /  8km/h 77% 0.00in /  0mm 295 W/m2
08:47 29.6 °F /  -1.3 °C 22.0 °F /  -5.6 °C 30.22in /  1023.2hPa North 3.0mph /  4.8km/h 5.0mph /  8km/h 74% 0.00in /  0mm 338 W/m2
09:02 30.6 °F /  -0.8 °C 23.0 °F /  -5 °C 30.22in /  1023.2hPa North 2.0mph /  3.2km/h 6.0mph /  9.7km/h 72% 0.00in /  0mm 387 W/m2
09:17 31.6 °F /  -0.2 °C 23.0 °F /  -5 °C 30.22in /  1023.2hPa North 6.0mph /  9.7km/h 6.0mph /  9.7km/h 70% 0.00in /  0mm 431 W/m2
09:32 32.4 °F /  0.2 °C 23.0 °F /  -5 °C 30.22in /  1023.2hPa North 3.0mph /  4.8km/h 5.0mph /  8km/h 69% 0.00in /  0mm 475 W/m2
09:47 33.7 °F /  0.9 °C 23.0 °F /  -5 °C 30.21in /  1022.9hPa North 3.0mph /  4.8km/h 6.0mph /  9.7km/h 66% 0.00in /  0mm 517 W/m2
10:02 34.7 °F /  1.5 °C 23.0 °F /  -5 °C 30.21in /  1022.9hPa North 2.0mph /  3.2km/h 5.0mph /  8km/h 62% 0.00in /  0mm 557 W/m2
10:18 34.9 °F /  1.6 °C 21.0 °F /  -6.1 °C 30.20in /  1022.6hPa North 4.0mph /  6.4km/h 8.0mph /  12.9km/h 58% 0.00in /  0mm 596 W/m2
10:33 36.0 °F /  2.2 °C 21.0 °F /  -6.1 °C 30.20in /  1022.6hPa North 4.0mph /  6.4km/h 9.0mph /  14.5km/h 55% 0.00in /  0mm 633 W/m2
10:48 36.2 °F /  2.3 °C 19.0 °F /  -7.2 °C 30.20in /  1022.6hPa North 2.0mph /  3.2km/h 10.0mph /  16.1km/h 51% 0.00in /  0mm 670 W/m2
11:03 36.6 °F /  2.6 °C 19.0 °F /  -7.2 °C 30.20in /  1022.6hPa North 1.0mph /  1.6km/h 8.0mph /  12.9km/h 50% 0.00in /  0mm 703 W/m2
11:18 37.7 °F /  3.2 °C 19.0 °F /  -7.2 °C 30.19in /  1022.2hPa NNW 6.0mph /  9.7km/h 9.0mph /  14.5km/h 47% 0.00in /  0mm 733 W/m2
11:33 38.4 °F /  3.6 °C 19.0 °F /  -7.2 °C 30.18in /  1021.9hPa NE 4.0mph /  6.4km/h 8.0mph /  12.9km/h 45% 0.00in /  0mm 765 W/m2
11:48 38.3 °F /  3.5 °C 20.0 °F /  -6.7 °C 30.18in /  1021.9hPa NNE 4.0mph /  6.4km/h 11.0mph /  17.7km/h 47% 0.00in /  0mm 789 W/m2
12:03 39.2 °F /  4 °C 20.0 °F /  -6.7 °C 30.17in /  1021.6hPa NNE 6.0mph /  9.7km/h 10.0mph /  16.1km/h 46% 0.00in /  0mm 809 W/m2
12:18 39.4 °F /  4.1 °C 21.0 °F /  -6.1 °C 30.17in /  1021.6hPa North 4.0mph /  6.4km/h 12.0mph /  19.3km/h 47% 0.00in /  0mm 828 W/m2
12:33 40.2 °F /  4.6 °C 22.0 °F /  -5.6 °C 30.16in /  1021.2hPa North 8.0mph /  12.9km/h 11.0mph /  17.7km/h 48% 0.00in /  0mm 840 W/m2
12:48 41.0 °F /  5 °C 21.0 °F /  -6.1 °C 30.15in /  1020.9hPa North 5.0mph /  8km/h 10.0mph /  16.1km/h 46% 0.00in /  0mm 849 W/m2
13:03 41.5 °F /  5.3 °C 22.0 °F /  -5.6 °C 30.15in /  1020.9hPa NNW 1.0mph /  1.6km/h 9.0mph /  14.5km/h 46% 0.00in /  0mm 856 W/m2
13:18 41.3 °F /  5.2 °C 19.0 °F /  -7.2 °C 30.15in /  1020.9hPa NE 5.0mph /  8km/h 9.0mph /  14.5km/h 41% 0.00in /  0mm 860 W/m2
13:33 41.6 °F /  5.3 °C 22.0 °F /  -5.6 °C 30.14in /  1020.5hPa NNE 6.0mph /  9.7km/h 9.0mph /  14.5km/h 45% 0.00in /  0mm 860 W/m2
13:48 42.9 °F /  6.1 °C 22.0 °F /  -5.6 °C 30.14in /  1020.5hPa NNW 9.0mph /  14.5km/h 11.0mph /  17.7km/h 44% 0.00in /  0mm 856 W/m2
14:03 42.4 °F /  5.8 °C 21.0 °F /  -6.1 °C 30.13in /  1020.2hPa NNW 1.0mph /  1.6km/h 6.0mph /  9.7km/h 43% 0.00in /  0mm 847 W/m2
14:18 43.1 °F /  6.2 °C 21.0 °F /  -6.1 °C 30.13in /  1020.2hPa NNE 6.0mph /  9.7km/h 11.0mph /  17.7km/h 41% 0.00in /  0mm 838 W/m2
14:34 43.6 °F /  6.4 °C 23.0 °F /  -5 °C 30.13in /  1020.2hPa ENE 1.0mph /  1.6km/h 5.0mph /  8km/h 44% 0.00in /  0mm 821 W/m2
14:49 43.7 °F /  6.5 °C 23.0 °F /  -5 °C 30.12in /  1019.9hPa NNE 5.0mph /  8km/h 10.0mph /  16.1km/h 44% 0.00in /  0mm 802 W/m2
15:04 44.2 °F /  6.8 °C 23.0 °F /  -5 °C 30.12in /  1019.9hPa North 4.0mph /  6.4km/h 10.0mph /  16.1km/h 43% 0.00in /  0mm 775 W/m2
15:19 44.7 °F /  7.1 °C 24.0 °F /  -4.4 °C 30.12in /  1019.9hPa NE 6.0mph /  9.7km/h 9.0mph /  14.5km/h 44% 0.00in /  0mm 759 W/m2
15:34 44.9 °F /  7.2 °C 24.0 °F /  -4.4 °C 30.11in /  1019.5hPa NE 2.0mph /  3.2km/h 9.0mph /  14.5km/h 44% 0.00in /  0mm 735 W/m2
15:49 45.1 °F /  7.3 °C 25.0 °F /  -3.9 °C 30.10in /  1019.2hPa NNE 3.0mph /  4.8km/h 9.0mph /  14.5km/h 45% 0.00in /  0mm 705 W/m2
16:04 46.0 °F /  7.8 °C 27.0 °F /  -2.8 °C 30.09in /  1018.8hPa ESE 1.0mph /  1.6km/h 8.0mph /  12.9km/h 47% 0.00in /  0mm 664 W/m2
16:19 46.1 °F /  7.8 °C 27.0 °F /  -2.8 °C 30.09in /  1018.8hPa NE 2.0mph /  3.2km/h 9.0mph /  14.5km/h 47% 0.00in /  0mm 631 W/m2
16:34 46.2 °F /  7.9 °C 26.0 °F /  -3.3 °C 30.09in /  1018.8hPa ENE 1.0mph /  1.6km/h 11.0mph /  17.7km/h 46% 0.00in /  0mm 598 W/m2
16:49 46.3 °F /  7.9 °C 27.0 °F /  -2.8 °C 30.08in /  1018.5hPa ENE 5.0mph /  8km/h 10.0mph /  16.1km/h 47% 0.00in /  0mm 559 W/m2
17:04 46.5 °F /  8.1 °C 27.0 °F /  -2.8 °C 30.07in /  1018.2hPa NE 3.0mph /  4.8km/h 9.0mph /  14.5km/h 46% 0.00in /  0mm 519 W/m2
17:19 46.3 °F /  7.9 °C 27.0 °F /  -2.8 °C 30.07in /  1018.2hPa NNE 5.0mph /  8km/h 9.0mph /  14.5km/h 48% 0.00in /  0mm 469 W/m2
17:34 46.5 °F /  8.1 °C 25.0 °F /  -3.9 °C 30.06in /  1017.8hPa NNE 3.0mph /  4.8km/h 11.0mph /  17.7km/h 44% 0.00in /  0mm 432 W/m2
17:49 46.7 °F /  8.2 °C 24.0 °F /  -4.4 °C 30.06in /  1017.8hPa NE 3.0mph /  4.8km/h 9.0mph /  14.5km/h 41% 0.00in /  0mm 381 W/m2
18:04 46.4 °F /  8 °C 24.0 °F /  -4.4 °C 30.05in /  1017.5hPa NE 6.0mph /  9.7km/h 11.0mph /  17.7km/h 41% 0.00in /  0mm 338 W/m2
18:19 46.2 °F /  7.9 °C 24.0 °F /  -4.4 °C 30.04in /  1017.2hPa NE 4.0mph /  6.4km/h 11.0mph /  17.7km/h 41% 0.00in /  0mm 292 W/m2
18:34 46.0 °F /  7.8 °C 23.0 °F /  -5 °C 30.04in /  1017.2hPa NE 5.0mph /  8km/h 10.0mph /  16.1km/h 41% 0.00in /  0mm 44 W/m2
18:49 45.7 °F /  7.6 °C 24.0 °F /  -4.4 °C 30.04in /  1017.2hPa NNE 8.0mph /  12.9km/h 11.0mph /  17.7km/h 42% 0.00in /  0mm 39 W/m2
19:04 45.4 °F /  7.4 °C 24.0 °F /  -4.4 °C 30.03in /  1016.8hPa NE 7.0mph /  11.3km/h 10.0mph /  16.1km/h 44% 0.00in /  0mm 35 W/m2
19:19 45.0 °F /  7.2 °C 25.0 °F /  -3.9 °C 30.03in /  1016.8hPa NE 7.0mph /  11.3km/h 10.0mph /  16.1km/h 45% 0.00in /  0mm 32 W/m2
19:34 44.5 °F /  6.9 °C 25.0 °F /  -3.9 °C 30.03in /  1016.8hPa NE 6.0mph /  9.7km/h 10.0mph /  16.1km/h 46% 0.00in /  0mm 26 W/m2
19:49 43.8 °F /  6.6 °C 25.0 °F /  -3.9 °C 30.04in /  1017.2hPa NNE 6.0mph /  9.7km/h 11.0mph /  17.7km/h 47% 0.00in /  0mm 19 W/m2
20:04 42.9 °F /  6.1 °C 26.0 °F /  -3.3 °C 30.04in /  1017.2hPa NE 4.0mph /  6.4km/h 6.0mph /  9.7km/h 51% 0.00in /  0mm 12 W/m2
20:19 41.9 °F /  5.5 °C 26.0 °F /  -3.3 °C 30.04in /  1017.2hPa NE 2.0mph /  3.2km/h 7.0mph /  11.3km/h 53% 0.00in /  0mm 5 W/m2
20:34 40.5 °F /  4.7 °C 26.0 °F /  -3.3 °C 30.03in /  1016.8hPa NE 1.0mph /  1.6km/h 5.0mph /  8km/h 57% 0.00in /  0mm 0 W/m2
20:49 39.4 °F /  4.1 °C 26.0 °F /  -3.3 °C 30.03in /  1016.8hPa NE 3.0mph /  4.8km/h 7.0mph /  11.3km/h 59% 0.00in /  0mm 0 W/m2
21:04 38.5 °F /  3.6 °C 26.0 °F /  -3.3 °C 30.03in /  1016.8hPa NE 6.0mph /  9.7km/h 8.0mph /  12.9km/h 61% 0.00in /  0mm 0 W/m2
21:19 37.7 °F /  3.2 °C 26.0 °F /  -3.3 °C 30.04in /  1017.2hPa NE 4.0mph /  6.4km/h 9.0mph /  14.5km/h 64% 0.00in /  0mm 0 W/m2
21:34 36.9 °F /  2.7 °C 26.0 °F /  -3.3 °C 30.05in /  1017.5hPa Calm   6.0mph /  9.7km/h 65% 0.00in /  0mm 0 W/m2
21:49 35.6 °F /  2 °C 26.0 °F /  -3.3 °C 30.06in /  1017.8hPa Calm   4.0mph /  6.4km/h 67% 0.00in /  0mm 0 W/m2
22:04 34.3 °F /  1.3 °C 25.0 °F /  -3.9 °C 30.07in /  1018.2hPa Calm   2.0mph /  3.2km/h 70% 0.00in /  0mm 0 W/m2
22:19 33.7 °F /  0.9 °C 25.0 °F /  -3.9 °C 30.07in /  1018.2hPa Calm     71% 0.00in /  0mm 0 W/m2
22:34 33.2 °F /  0.7 °C 26.0 °F /  -3.3 °C 30.07in /  1018.2hPa NE 1.0mph /  1.6km/h 4.0mph /  6.4km/h 74% 0.00in /  0mm 0 W/m2
23:04 33.0 °F /  0.6 °C 26.0 °F /  -3.3 °C 30.07in /  1018.2hPa NE 1.0mph /  1.6km/h 3.0mph /  4.8km/h 75% 0.00in /  0mm 0 W/m2
23:19 32.2 °F /  0.1 °C 25.0 °F /  -3.9 °C 30.08in /  1018.5hPa Calm   1.0mph /  1.6km/h 76% 0.00in /  0mm 0 W/m2
23:34 31.5 °F /  -0.3 °C 25.0 °F /  -3.9 °C 30.08in /  1018.5hPa Calm     77% 0.00in /  0mm 0 W/m2
23:49 30.8 °F /  -0.7 °C 25.0 °F /  -3.9 °C 30.08in /  1018.5hPa Calm     78% 0.00in /  0mm 0 W/m2